createdAt,value
2022-09-28T00:02:14.820Z,95851.16
2022-09-28T00:04:42.922Z,95851.78
2022-09-28T00:07:10.804Z,95851.63
2022-09-28T00:09:40.059Z,95850.81
2022-09-28T00:12:08.354Z,95857.28
2022-09-28T00:14:37.138Z,95850.22
2022-09-28T00:17:05.389Z,95852.47
2022-09-28T00:19:33.966Z,95844.41
2022-09-28T00:22:02.221Z,95838.09
2022-09-28T00:24:30.515Z,95837.16
2022-09-28T00:27:02.963Z,95833.78
2022-09-28T00:29:32.675Z,95816.09
2022-09-28T00:32:03.475Z,95812.78
2022-09-28T00:34:34.614Z,95804.75
2022-09-28T00:37:04.631Z,95808.81
2022-09-28T00:39:32.794Z,95805.91
2022-09-28T00:42:02.515Z,95809.03
2022-09-28T00:44:41.663Z,95801.72
2022-09-28T00:47:39.467Z,95801.94
2022-09-28T00:50:14.427Z,95798.00
2022-09-28T00:52:50.075Z,95787.84
2022-09-28T00:55:22.092Z,95786.72
2022-09-28T00:57:55.618Z,95783.69
2022-09-28T01:00:23.951Z,95769.69
2022-09-28T01:02:53.218Z,95773.00
2022-09-28T01:05:23.213Z,95766.66
2022-09-28T01:07:52.420Z,95759.59
2022-09-28T01:10:20.273Z,95743.38
2022-09-28T01:12:48.706Z,95745.97
2022-09-28T01:15:18.298Z,95744.50
2022-09-28T01:18:01.299Z,95728.41
2022-09-28T01:20:41.986Z,95722.56
2022-09-28T01:23:54.994Z,95712.75
2022-09-28T01:27:04.644Z,95713.88
2022-09-28T01:29:44.750Z,95709.06
2022-09-28T01:32:25.363Z,95698.69
2022-09-28T01:34:58.871Z,95696.88
2022-09-28T01:37:36.497Z,95695.22
2022-09-28T01:40:08.297Z,95701.97
2022-09-28T01:42:39.331Z,95696.19
2022-09-28T01:45:15.491Z,95690.34
2022-09-28T01:47:46.969Z,95684.53
2022-09-28T01:50:18.788Z,95672.03
2022-09-28T01:52:53.418Z,95662.00
2022-09-28T01:55:29.465Z,95674.06
2022-09-28T01:58:01.898Z,95662.34
2022-09-28T02:00:31.512Z,95669.66
2022-09-28T02:03:07.263Z,95667.63
2022-09-28T02:05:37.938Z,95669.16
2022-09-28T02:08:10.797Z,95667.25
2022-09-28T02:10:43.568Z,95666.94
2022-09-28T02:13:17.592Z,95663.91
2022-09-28T02:15:55.177Z,95657.94
2022-09-28T02:18:23.522Z,95650.19
2022-09-28T02:20:59.051Z,95639.47
2022-09-28T02:23:29.988Z,95644.53
2022-09-28T02:26:03.178Z,95648.25
2022-09-28T02:28:31.961Z,95647.13
2022-09-28T02:31:02.354Z,95639.47
2022-09-28T02:33:35.588Z,95636.53
2022-09-28T02:36:04.648Z,95637.44
2022-09-28T02:38:33.622Z,95625.00
2022-09-28T02:41:07.004Z,95624.28
2022-09-28T02:43:45.714Z,95624.31
2022-09-28T02:46:23.403Z,95623.84
2022-09-28T02:49:21.420Z,95630.50
2022-09-28T02:52:27.846Z,95620.25
2022-09-28T02:55:14.435Z,95609.13
2022-09-28T02:57:57.477Z,95608.09
2022-09-28T03:00:25.635Z,95606.19
2022-09-28T03:03:03.247Z,95609.34
2022-09-28T03:05:37.465Z,95611.94
2022-09-28T03:08:13.296Z,95600.38
2022-09-28T03:10:46.238Z,95601.25
2022-09-28T03:13:16.790Z,95611.38
2022-09-28T03:15:48.612Z,95605.66
2022-09-28T03:18:18.640Z,95601.50
2022-09-28T03:20:47.544Z,95597.09
2022-09-28T03:23:31.218Z,95607.56
2022-09-28T03:25:59.544Z,95599.78
2022-09-28T03:28:28.273Z,66418.66
2022-09-28T03:30:59.154Z,66418.66
2022-09-28T03:33:28.209Z,66418.66
2022-09-28T03:35:55.909Z,66418.66
2022-09-28T03:38:23.953Z,66418.66
2022-09-28T03:40:55.525Z,66418.66
2022-09-28T03:43:23.670Z,66418.66
2022-09-28T03:45:55.191Z,66418.66
2022-09-28T03:48:27.734Z,66418.66
2022-09-28T03:51:02.328Z,66418.66
2022-09-28T03:53:30.943Z,66418.66
2022-09-28T03:56:04.514Z,66418.66
2022-09-28T03:58:32.599Z,66418.66
2022-09-28T04:01:03.933Z,66418.66
2022-09-28T04:03:32.295Z,66418.66
2022-09-28T04:06:02.005Z,66418.66
2022-09-28T04:08:30.262Z,66418.66
2022-09-28T04:10:58.622Z,66418.66
2022-09-28T04:13:27.057Z,66418.66
2022-09-28T04:15:56.021Z,66418.66
2022-09-28T04:18:24.836Z,66418.66
2022-09-28T04:21:06.722Z,66418.66
2022-09-28T04:23:36.231Z,66418.66
2022-09-28T04:26:04.785Z,66418.66
2022-09-28T04:28:50.181Z,66418.66
2022-09-28T04:31:19.691Z,66418.66
2022-09-28T04:33:47.424Z,66418.66
2022-09-28T04:36:16.417Z,66418.66
2022-09-28T04:38:59.364Z,66418.66
2022-09-28T04:41:28.060Z,66418.66
2022-09-28T04:43:56.197Z,66418.66
2022-09-28T04:46:23.824Z,66418.66
2022-09-28T04:48:51.513Z,66418.66
2022-09-28T04:51:20.493Z,66418.66
2022-09-28T04:53:48.271Z,66418.66
2022-09-28T04:56:17.820Z,66418.66
2022-09-28T04:58:51.772Z,66418.66
2022-09-28T05:01:23.497Z,66418.66
2022-09-28T05:03:51.657Z,66418.66
2022-09-28T05:06:22.623Z,66418.66
2022-09-28T05:08:50.757Z,66418.66
2022-09-28T05:11:19.818Z,66418.66
2022-09-28T05:13:48.793Z,66418.66
2022-09-28T05:16:17.004Z,66418.66
2022-09-28T05:18:45.068Z,66418.66
2022-09-28T05:21:13.702Z,66418.66
2022-09-28T05:23:47.606Z,66418.66
2022-09-28T05:26:15.364Z,66418.66
2022-09-28T05:28:44.964Z,66418.66
2022-09-28T05:31:12.801Z,66418.66
2022-09-28T05:33:40.868Z,66418.66
2022-09-28T05:36:10.807Z,66418.66
2022-09-28T05:38:39.577Z,66418.66
2022-09-28T05:41:09.224Z,66418.66
2022-09-28T05:43:38.714Z,66418.66
2022-09-28T05:46:07.331Z,66418.66
2022-09-28T05:48:35.488Z,66418.66
2022-09-28T05:51:03.233Z,66418.66
2022-09-28T05:53:31.293Z,66418.66
2022-09-28T05:55:59.362Z,66418.66
2022-09-28T05:58:29.025Z,66418.66
2022-09-28T06:00:57.277Z,66418.66
2022-09-28T06:03:25.624Z,66418.66
2022-09-28T06:05:53.750Z,66418.66
2022-09-28T06:08:21.948Z,66418.66
2022-09-28T06:10:49.704Z,66418.66
2022-09-28T06:13:17.771Z,66418.66
2022-09-28T06:15:47.469Z,66418.66
2022-09-28T06:18:18.500Z,66418.66
2022-09-28T06:20:46.180Z,66418.66
2022-09-28T06:23:14.761Z,66418.66
2022-09-28T06:25:42.591Z,66418.66
2022-09-28T06:28:12.316Z,66418.66
2022-09-28T06:30:40.683Z,66418.66
2022-09-28T06:33:15.297Z,66418.66
2022-09-28T06:44:17.779Z,95369.19
2022-09-28T06:46:45.852Z,95357.63
2022-09-28T06:49:18.655Z,95356.63
2022-09-28T06:51:47.724Z,95358.25
2022-09-28T06:54:16.220Z,95363.06
2022-09-28T06:56:44.284Z,95366.19
2022-09-28T06:59:12.078Z,95371.19
2022-09-28T07:01:44.526Z,95372.59
2022-09-28T07:04:12.258Z,95372.84
2022-09-28T07:06:40.379Z,95372.34
2022-09-28T07:09:27.102Z,95368.69
2022-09-28T07:11:56.404Z,95378.31
2022-09-28T07:14:40.443Z,95385.44
2022-09-28T07:17:14.894Z,95385.13
2022-09-28T07:19:43.031Z,95373.97
2022-09-28T07:22:18.384Z,95379.31
2022-09-28T07:24:47.286Z,95383.09
2022-09-28T07:27:15.622Z,95376.25
2022-09-28T07:29:43.520Z,95388.22
2022-09-28T07:32:13.364Z,95387.31
2022-09-28T07:34:43.784Z,95387.09
2022-09-28T07:37:12.838Z,95393.31
2022-09-28T07:39:54.687Z,95393.66
2022-09-28T07:42:22.828Z,95395.19
2022-09-28T07:44:51.320Z,95407.06
2022-09-28T07:47:30.780Z,95408.03
2022-09-28T07:50:00.133Z,95408.84
2022-09-28T07:52:30.601Z,95407.25
2022-09-28T07:54:59.795Z,95415.91
2022-09-28T07:57:30.362Z,95425.75
2022-09-28T07:59:58.530Z,95430.53
2022-09-28T08:02:28.112Z,95436.41
2022-09-28T08:04:56.361Z,95444.38
2022-09-28T08:07:26.069Z,95443.59
2022-09-28T08:09:53.796Z,95440.84
2022-09-28T08:12:22.738Z,95444.38
2022-09-28T08:14:52.149Z,95451.78
2022-09-28T08:17:19.872Z,95450.59
2022-09-28T08:20:06.920Z,95451.34
2022-09-28T08:22:34.946Z,95456.88
2022-09-28T08:25:02.598Z,95459.16
2022-09-28T08:27:30.707Z,95452.28
2022-09-28T08:29:59.787Z,95454.50
2022-09-28T08:32:28.292Z,95457.16
2022-09-28T08:34:57.732Z,95461.69
2022-09-28T08:37:25.429Z,95472.69
2022-09-28T08:39:53.412Z,95468.25
2022-09-28T08:42:35.318Z,95471.66
2022-09-28T08:45:10.057Z,95475.19
2022-09-28T08:48:07.167Z,95477.97
2022-09-28T08:50:48.319Z,95483.97
2022-09-28T08:53:35.391Z,95479.63
2022-09-28T08:56:07.245Z,95483.63
2022-09-28T08:58:39.083Z,95483.63
2022-09-28T09:01:11.768Z,95496.69
2022-09-28T09:03:46.398Z,95499.81
2022-09-28T09:06:26.183Z,95502.91
2022-09-28T09:09:05.400Z,95504.47
2022-09-28T09:11:55.424Z,95511.56
2022-09-28T09:15:00.661Z,95521.84
2022-09-28T09:17:40.365Z,95525.75
2022-09-28T09:20:19.428Z,95534.63
2022-09-28T09:23:01.534Z,95521.00
2022-09-28T09:25:38.600Z,95541.84
2022-09-28T09:28:40.650Z,95541.16
2022-09-28T09:31:24.317Z,95532.75
2022-09-28T09:34:15.826Z,95555.44
2022-09-28T09:37:00.724Z,95533.16
2022-09-28T09:39:45.727Z,95553.88
2022-09-28T09:42:30.053Z,95555.44
2022-09-28T09:45:28.720Z,95549.53
2022-09-28T09:48:02.575Z,95554.09
2022-09-28T09:50:35.132Z,95557.97
2022-09-28T09:53:08.315Z,95564.63
2022-09-28T09:55:43.252Z,95566.81
2022-09-28T09:58:17.530Z,95576.56
2022-09-28T10:00:49.130Z,95584.31
2022-09-28T10:03:23.210Z,95585.91
2022-09-28T10:05:59.276Z,95597.41
2022-09-28T10:08:29.738Z,95595.78
2022-09-28T10:11:09.986Z,95597.56
2022-09-28T10:13:38.241Z,95595.91
2022-09-28T10:16:07.337Z,95595.34
2022-09-28T10:18:35.948Z,95595.34
2022-09-28T10:21:04.442Z,95609.31
2022-09-28T10:23:35.289Z,95596.41
2022-09-28T10:26:09.260Z,95602.31
2022-09-28T10:28:46.360Z,95608.69
2022-09-28T10:31:40.266Z,95607.34
2022-09-28T10:34:09.780Z,95605.63
2022-09-28T10:36:52.678Z,95613.38
2022-09-28T10:39:31.668Z,95620.03
2022-09-28T10:42:04.455Z,95612.63
2022-09-28T10:44:34.657Z,95620.91
2022-09-28T10:47:05.240Z,95610.41
2022-09-28T10:49:45.869Z,95619.44
2022-09-28T10:52:34.041Z,95616.06
2022-09-28T10:55:02.675Z,95617.94
2022-09-28T10:57:36.684Z,95624.88
2022-09-28T11:00:06.945Z,95621.50
2022-09-28T11:02:37.987Z,95620.50
2022-09-28T11:05:08.095Z,95625.97
2022-09-28T11:07:46.746Z,95628.13
2022-09-28T11:10:21.966Z,95623.88
2022-09-28T11:12:55.260Z,95617.16
2022-09-28T11:15:28.412Z,95619.47
2022-09-28T11:17:56.356Z,95621.78
2022-09-28T11:20:35.978Z,95611.34
2022-09-28T11:23:20.713Z,95613.16
2022-09-28T11:26:05.695Z,95615.28
2022-09-28T11:28:37.410Z,95611.03
2022-09-28T11:31:07.230Z,95617.22
2022-09-28T11:33:38.739Z,95625.44
2022-09-28T11:36:19.575Z,95622.25
2022-09-28T11:39:00.745Z,95617.72
2022-09-28T11:41:49.235Z,95621.44
2022-09-28T11:44:45.048Z,95630.81
2022-09-28T11:47:46.820Z,95626.72
2022-09-28T11:50:24.274Z,95638.72
2022-09-28T11:53:00.817Z,95634.69
2022-09-28T11:55:36.272Z,95636.66
2022-09-28T11:58:11.587Z,95641.34
2022-09-28T12:00:46.670Z,95644.56
2022-09-28T12:03:19.607Z,95643.63
2022-09-28T12:05:52.709Z,95645.41
2022-09-28T12:08:25.550Z,95641.41
2022-09-28T12:10:59.077Z,95640.69
2022-09-28T12:13:29.807Z,95631.31
2022-09-28T12:16:45.314Z,95628.16
2022-09-28T12:18:54.978Z,95621.53
2022-09-28T12:21:34.492Z,95628.81
2022-09-28T12:24:08.946Z,95625.59
2022-09-28T12:26:43.499Z,95627.41
2022-09-28T12:29:15.940Z,95617.13
2022-09-28T12:31:56.864Z,95622.47
2022-09-28T12:34:24.525Z,95621.97
2022-09-28T12:37:06.344Z,95626.06
2022-09-28T12:39:57.710Z,95626.69
2022-09-28T12:42:46.882Z,95620.16
2022-09-28T12:45:47.886Z,95626.41
2022-09-28T12:49:33.161Z,95637.19
2022-09-28T12:51:48.982Z,95637.22
2022-09-28T12:54:48.844Z,95646.78
2022-09-28T12:57:39.129Z,95655.06
2022-09-28T13:00:11.955Z,95655.47
2022-09-28T13:03:07.515Z,95661.25
2022-09-28T13:06:04.412Z,95656.56
2022-09-28T13:08:42.802Z,95651.91
2022-09-28T13:11:21.632Z,95662.34
2022-09-28T13:14:00.086Z,95653.94
2022-09-28T13:16:35.458Z,95648.50
2022-09-28T13:19:13.410Z,95651.31
2022-09-28T13:21:48.001Z,95644.88
2022-09-28T13:24:32.671Z,95657.03
2022-09-28T13:27:08.437Z,95663.88
2022-09-28T13:29:37.125Z,95656.50
2022-09-28T13:32:05.789Z,95653.34
2022-09-28T13:34:37.435Z,95657.31
2022-09-28T13:37:21.936Z,95650.44
2022-09-28T13:39:52.818Z,95662.13
2022-09-28T13:42:51.355Z,95661.25
2022-09-28T13:45:30.558Z,95660.91
2022-09-28T13:48:13.086Z,95670.13
2022-09-28T13:51:07.534Z,95671.00
2022-09-28T13:53:57.847Z,95667.56
2022-09-28T13:56:35.921Z,95674.00
2022-09-28T13:59:16.218Z,95673.03
2022-09-28T14:01:51.637Z,95669.19
2022-09-28T14:04:22.426Z,95669.50
2022-09-28T14:06:55.475Z,95679.19
2022-09-28T14:09:28.483Z,95672.63
2022-09-28T14:12:01.867Z,95670.38
2022-09-28T14:14:45.018Z,95673.50
2022-09-28T14:17:50.349Z,95668.84
2022-09-28T14:20:20.561Z,95672.78
2022-09-28T14:23:03.360Z,95670.72
2022-09-28T14:25:37.401Z,95673.56
2022-09-28T14:28:23.177Z,95662.50
2022-09-28T14:30:54.048Z,95664.47
2022-09-28T14:33:28.715Z,95662.53
2022-09-28T14:35:59.312Z,95664.91
2022-09-28T14:38:50.265Z,95660.59
2022-09-28T14:41:33.781Z,95667.66
2022-09-28T14:44:04.819Z,95670.38
2022-09-28T14:46:45.470Z,95675.88
2022-09-28T14:49:53.355Z,95676.50
2022-09-28T14:52:40.871Z,95678.59
2022-09-28T14:55:15.288Z,95678.97
2022-09-28T14:57:44.570Z,95680.72
2022-09-28T15:00:22.154Z,95678.97
2022-09-28T15:02:52.728Z,95678.16
2022-09-28T15:05:25.234Z,95680.91
2022-09-28T15:07:54.260Z,95678.59
2022-09-28T15:10:31.552Z,95688.63
2022-09-28T15:13:02.473Z,95694.59
2022-09-28T15:15:34.809Z,95694.06
2022-09-28T15:18:22.016Z,95699.41
2022-09-28T15:20:50.494Z,95701.91
2022-09-28T15:23:34.602Z,95696.59
2022-09-28T15:26:03.475Z,95702.41
2022-09-28T15:28:35.961Z,95703.28
2022-09-28T15:31:05.331Z,95705.97
2022-09-28T15:33:52.816Z,95696.88
2022-09-28T15:36:23.077Z,95708.19
2022-09-28T15:38:57.249Z,95711.50
2022-09-28T15:41:26.408Z,95713.44
2022-09-28T15:44:14.722Z,95720.13
2022-09-28T15:46:44.809Z,95721.97
2022-09-28T15:49:25.929Z,95726.34
2022-09-28T15:51:56.332Z,95734.06
2022-09-28T15:54:27.886Z,95734.09
2022-09-28T15:56:59.685Z,95741.47
2022-09-28T15:59:33.181Z,95736.44
2022-09-28T16:02:11.401Z,95740.44
2022-09-28T16:04:50.689Z,95743.59
2022-09-28T16:07:25.437Z,95734.16
2022-09-28T16:10:03.201Z,95734.56
2022-09-28T16:12:42.207Z,95730.44
2022-09-28T16:15:20.195Z,95734.22
2022-09-28T16:17:52.909Z,95739.50
2022-09-28T16:20:29.756Z,95750.75
2022-09-28T16:23:03.513Z,95750.91
2022-09-28T16:25:31.398Z,95753.09
2022-09-28T16:27:59.153Z,95753.75
2022-09-28T16:30:30.367Z,95752.72
2022-09-28T16:33:01.245Z,95761.84
2022-09-28T16:35:32.138Z,95765.47
2022-09-28T16:38:06.934Z,95765.00
2022-09-28T16:40:35.266Z,95775.00
2022-09-28T16:43:06.695Z,95775.06
2022-09-28T16:45:39.934Z,95777.28
2022-09-28T16:48:07.650Z,95788.00
2022-09-28T16:50:35.361Z,95793.72
2022-09-28T16:53:31.040Z,95791.00
2022-09-28T16:56:00.214Z,95791.31
2022-09-28T16:58:28.858Z,95792.75
2022-09-28T17:00:58.323Z,95799.53
2022-09-28T17:03:26.635Z,95802.13
2022-09-28T17:05:55.204Z,95809.28
2022-09-28T17:08:25.014Z,95806.31
2022-09-28T17:11:16.594Z,95808.81
2022-09-28T17:13:42.456Z,95807.94
2022-09-28T17:16:15.780Z,95810.84
2022-09-28T17:18:43.546Z,95808.38
2022-09-28T17:21:16.064Z,95801.13
2022-09-28T17:23:44.050Z,95808.28
2022-09-28T17:26:20.440Z,95811.94
2022-09-28T17:28:48.344Z,95810.84
2022-09-28T17:31:18.384Z,95808.59
2022-09-28T17:33:46.149Z,95803.59
2022-09-28T17:36:17.057Z,95809.34
2022-09-28T17:38:45.597Z,95817.69
2022-09-28T17:41:19.996Z,95807.69
2022-09-28T17:43:48.714Z,95816.69
2022-09-28T17:46:27.561Z,95817.13
2022-09-28T17:48:57.512Z,95815.28
2022-09-28T17:51:25.598Z,95815.47
2022-09-28T17:53:54.361Z,95818.66
2022-09-28T17:56:22.392Z,95815.56
2022-09-28T17:58:50.179Z,95822.09
2022-09-28T18:01:18.315Z,95828.25
2022-09-28T18:03:47.534Z,95820.47
2022-09-28T18:06:19.717Z,95820.63
2022-09-28T18:08:47.740Z,95828.09
2022-09-28T18:11:17.633Z,95824.44
2022-09-28T18:13:46.026Z,95827.00
2022-09-28T18:16:14.650Z,95823.13
2022-09-28T18:18:42.524Z,95818.03
2022-09-28T18:21:11.672Z,95826.53
2022-09-28T18:23:40.160Z,95830.75
2022-09-28T18:26:11.929Z,95823.53
2022-09-28T18:28:39.825Z,95834.59
2022-09-28T18:31:11.559Z,95843.78
2022-09-28T18:33:40.370Z,95841.94
2022-09-28T18:36:09.277Z,95839.16
2022-09-28T18:38:39.157Z,95846.31
2022-09-28T18:41:10.433Z,95851.41
2022-09-28T18:43:38.558Z,95848.69
2022-09-28T18:46:08.260Z,95856.28
2022-09-28T18:48:36.905Z,95862.28
2022-09-28T18:51:08.795Z,95861.72
2022-09-28T18:53:37.829Z,95871.34
2022-09-28T18:56:10.221Z,95869.69
2022-09-28T18:58:38.638Z,95871.38
2022-09-28T19:01:29.061Z,95866.97
2022-09-28T19:03:59.759Z,95869.88
2022-09-28T19:06:27.512Z,95873.16
2022-09-28T19:08:57.383Z,95878.56
2022-09-28T19:11:26.264Z,95878.56
2022-09-28T19:13:54.781Z,95884.13
2022-09-28T19:16:24.873Z,95876.78
2022-09-28T19:18:53.576Z,95878.03
2022-09-28T19:21:21.783Z,95876.31
2022-09-28T19:23:50.678Z,95880.66
2022-09-28T19:26:21.875Z,95878.81
2022-09-28T19:28:50.048Z,95882.31
2022-09-28T19:31:18.574Z,95884.63
2022-09-28T19:33:46.755Z,95884.19
2022-09-28T19:36:18.624Z,95890.28
2022-09-28T19:38:46.965Z,66418.66
2022-09-28T19:41:40.762Z,66418.66
2022-09-28T19:44:15.775Z,66418.66
2022-09-28T19:46:44.409Z,66418.66
2022-09-28T19:49:13.904Z,66418.66
2022-09-28T19:52:11.010Z,66418.66
2022-09-28T19:54:36.310Z,66418.66
2022-09-28T19:57:07.455Z,66418.66
2022-09-28T20:03:40.085Z,95906.03
2022-09-28T20:06:08.255Z,95926.53
2022-09-28T20:45:39.739Z,95945.75
2022-09-28T20:53:02.503Z,95957.41
2022-09-28T20:55:30.915Z,95964.13
2022-09-28T20:58:03.277Z,95971.88
2022-09-28T21:00:31.249Z,95975.59
2022-09-28T21:02:59.173Z,95977.88
2022-09-28T21:05:27.860Z,95975.94
2022-09-28T21:07:55.907Z,95977.09
2022-09-28T21:10:25.265Z,95971.63
2022-09-28T21:12:53.336Z,95978.34
2022-09-28T21:15:21.217Z,95975.59
2022-09-28T21:17:49.219Z,95982.22
2022-09-28T21:20:17.485Z,95985.13
2022-09-28T21:22:45.421Z,95975.84
2022-09-28T21:25:13.940Z,95964.53
2022-09-28T21:27:43.210Z,95981.97
2022-09-28T21:30:12.643Z,95979.72
2022-09-28T21:32:40.696Z,95994.06
2022-09-28T21:35:10.444Z,95989.72
2022-09-28T21:37:38.578Z,95972.78
2022-09-28T21:40:10.195Z,95976.16
2022-09-28T21:42:38.224Z,95981.13
2022-09-28T21:45:08.996Z,95984.94
2022-09-28T21:47:37.039Z,95992.06
2022-09-28T21:50:07.079Z,96003.56
2022-09-28T21:52:34.926Z,95999.47
2022-09-28T21:55:03.741Z,95956.28
2022-09-28T21:57:31.829Z,95997.56
2022-09-28T22:00:00.129Z,95997.38
2022-09-28T22:02:30.670Z,95986.22
2022-09-28T22:04:59.696Z,95993.22
2022-09-28T22:07:27.666Z,95994.72
2022-09-28T22:09:56.261Z,95999.16
2022-09-28T22:12:24.205Z,95997.41
2022-09-28T22:14:52.370Z,95983.31
2022-09-28T22:17:20.301Z,95996.59
2022-09-28T22:19:50.222Z,95996.59
2022-09-28T22:22:18.293Z,95988.69
2022-09-28T22:24:46.519Z,95993.41
2022-09-28T22:27:15.445Z,95993.28
2022-09-28T22:29:44.461Z,96000.25
2022-09-28T22:32:15.080Z,95998.03
2022-09-28T22:34:43.338Z,96004.88
2022-09-28T22:37:12.522Z,95993.63
2022-09-28T22:39:41.597Z,95996.50
2022-09-28T22:42:09.545Z,95999.34
2022-09-28T22:44:38.159Z,95998.88
2022-09-28T22:47:06.248Z,96003.63
2022-09-28T22:49:34.763Z,96011.88
2022-09-28T22:52:02.945Z,96005.03
2022-09-28T22:54:33.158Z,95990.94
2022-09-28T22:57:01.051Z,96004.25
2022-09-28T22:59:29.898Z,96001.22
2022-09-28T23:01:57.791Z,95997.41
2022-09-28T23:04:26.485Z,96005.81
2022-09-28T23:06:54.301Z,96002.97
2022-09-28T23:09:22.569Z,96000.78
2022-09-28T23:11:51.796Z,96011.22
2022-09-28T23:14:20.264Z,96009.00
2022-09-28T23:16:48.066Z,95998.84
2022-09-28T23:19:17.323Z,96008.19
2022-09-28T23:21:45.368Z,96008.22
2022-09-28T23:24:13.806Z,96005.34
2022-09-28T23:26:44.015Z,96011.50
2022-09-28T23:29:14.036Z,96007.25
2022-09-28T23:31:42.220Z,96011.22
2022-09-28T23:34:12.207Z,96005.81
2022-09-28T23:36:40.822Z,96010.56
2022-09-28T23:39:11.975Z,96007.38
2022-09-28T23:41:40.383Z,96009.75
2022-09-28T23:44:08.883Z,96005.00
2022-09-28T23:46:38.768Z,96014.06
2022-09-28T23:49:07.901Z,96008.94
2022-09-28T23:51:35.795Z,95999.63
2022-09-28T23:54:06.944Z,96012.47
2022-09-28T23:56:34.899Z,96013.41
2022-09-28T23:59:03.484Z,96001.03
